Time;durP1;ratioP1;P1;durP2;ratioP2;P2;SDS_P1;SDS_P2;PMS_P1;PMS_P2;Temp;Humidity;BMP_temperature;BMP_pressure;BME280_temperature;BME280_humidity;BME280_pressure;Samples;Min_cycle;Max_cycle;Signal;HPM_P1;HPM_P2
2024/01/01 00:00:39;;;;;;;0.00;0.00;;;8.00;89.00;;;;;;5067393;28;20830;-68
2024/01/01 00:03:05;;;;;;;0.68;0.68;;;8.00;88.60;;;;;;5067615;28;20040;-68
2024/01/01 00:05:30;;;;;;;0.00;0.00;;;8.00;88.20;;;;;;5070966;28;20036;-68
2024/01/01 00:07:56;;;;;;;0.00;0.00;;;7.90;87.60;;;;;;5070232;28;20033;-68
2024/01/01 00:10:22;;;;;;;0.00;0.00;;;8.00;87.50;;;;;;5068768;28;20410;-68
2024/01/01 00:12:48;;;;;;;0.55;0.55;;;7.90;87.50;;;;;;5069363;28;20056;-68
2024/01/01 00:15:13;;;;;;;0.00;0.00;;;7.90;87.20;;;;;;5068821;28;20066;-68
2024/01/01 00:17:40;;;;;;;0.00;0.00;;;7.80;86.80;;;;;;5083087;28;20049;-68
2024/01/01 00:20:06;;;;;;;0.20;0.20;;;7.80;86.80;;;;;;5078247;28;20033;-68
2024/01/01 00:22:32;;;;;;;2.92;0.45;;;7.80;86.70;;;;;;5067835;28;20044;-68
2024/01/01 00:24:58;;;;;;;0.30;0.30;;;7.80;86.70;;;;;;5067064;28;20043;-68
2024/01/01 00:27:24;;;;;;;0.00;0.00;;;7.90;86.80;;;;;;5069204;28;20757;-68
2024/01/01 00:29:50;;;;;;;1.65;1.13;;;7.80;86.60;;;;;;5069862;28;20065;-68
2024/01/01 00:32:16;;;;;;;0.00;0.00;;;7.90;86.50;;;;;;5069025;28;20426;-68
2024/01/01 00:34:42;;;;;;;0.00;0.00;;;7.90;86.80;;;;;;5076635;28;20494;-68
2024/01/01 00:37:08;;;;;;;0.00;0.00;;;7.80;86.80;;;;;;5072234;28;20048;-68
2024/01/01 00:39:34;;;;;;;0.10;0.10;;;7.90;87.00;;;;;;5068875;28;20052;-68
2024/01/01 00:42:00;;;;;;;0.00;0.00;;;7.90;87.20;;;;;;5069963;28;20526;-68
2024/01/01 00:44:26;;;;;;;0.68;0.68;;;7.90;87.30;;;;;;5060591;28;20045;-68
2024/01/01 00:46:52;;;;;;;0.30;0.30;;;7.80;87.50;;;;;;5056153;28;20039;-68
2024/01/01 00:49:17;;;;;;;0.22;0.22;;;7.80;87.60;;;;;;5074559;28;20063;-68
2024/01/01 00:51:43;;;;;;;1.48;0.63;;;7.90;87.50;;;;;;5060262;28;20078;-68
2024/01/01 00:54:10;;;;;;;0.13;0.13;;;7.80;87.40;;;;;;5068465;28;20056;-68
2024/01/01 00:56:36;;;;;;;3.70;3.40;;;7.90;87.50;;;;;;5069779;28;20530;-67
2024/01/01 00:59:02;;;;;;;0.63;0.63;;;7.80;87.70;;;;;;5080382;28;20072;-68
2024/01/01 01:01:27;;;;;;;0.45;0.45;;;7.90;87.90;;;;;;5068500;28;20530;-67
2024/01/01 01:03:53;;;;;;;2.78;1.48;;;7.90;87.90;;;;;;5040127;28;20071;-67
2024/01/01 01:06:19;;;;;;;0.40;0.40;;;8.00;87.70;;;;;;5075797;28;20032;-67
2024/01/01 01:08:45;;;;;;;1.67;1.58;;;7.90;87.80;;;;;;5069231;28;20033;-67
2024/01/01 01:11:11;;;;;;;1.75;1.00;;;7.80;87.90;;;;;;5068356;28;20094;-67
2024/01/01 01:13:37;;;;;;;0.22;0.22;;;7.90;87.90;;;;;;5078284;28;20097;-67
2024/01/01 01:16:02;;;;;;;0.10;0.10;;;7.80;88.10;;;;;;5079422;28;20038;-67
2024/01/01 01:18:28;;;;;;;1.55;1.20;;;7.80;88.00;;;;;;5077269;28;20835;-67
2024/01/01 01:20:54;;;;;;;3.78;1.88;;;7.70;88.00;;;;;;5082675;28;20494;-67
2024/01/01 01:23:19;;;;;;;0.63;0.63;;;7.80;87.90;;;;;;5067977;28;20514;-67
2024/01/01 01:25:45;;;;;;;0.70;0.70;;;7.90;87.70;;;;;;5054135;28;20090;-67
2024/01/01 01:28:11;;;;;;;2.90;2.40;;;7.80;87.60;;;;;;5078777;28;20858;-67
2024/01/01 01:30:36;;;;;;;0.70;0.68;;;7.80;87.90;;;;;;5067931;28;20044;-67
2024/01/01 01:33:02;;;;;;;0.57;0.57;;;7.80;88.10;;;;;;5067457;28;20075;-67
2024/01/01 01:35:27;;;;;;;1.50;1.40;;;7.90;88.20;;;;;;5086699;28;20063;-67
2024/01/01 01:37:53;;;;;;;0.20;0.20;;;7.90;88.00;;;;;;5078192;28;20506;-67
2024/01/01 01:40:19;;;;;;;0.10;0.10;;;7.70;88.30;;;;;;5085406;28;20779;-67
2024/01/01 01:42:46;;;;;;;1.77;1.45;;;7.80;88.40;;;;;;5078447;28;20045;-67
2024/01/01 01:45:13;;;;;;;0.25;0.25;;;7.90;88.40;;;;;;5069036;28;20407;-67
2024/01/01 01:47:39;;;;;;;0.05;0.05;;;7.90;88.20;;;;;;5072160;28;20477;-67
2024/01/01 01:50:06;;;;;;;0.20;0.20;;;7.90;88.10;;;;;;5066189;28;20127;-67
2024/01/01 01:52:36;;;;;;;0.57;0.57;;;7.80;88.50;;;;;;5068828;28;20083;-67
2024/01/01 01:55:02;;;;;;;0.10;0.10;;;7.80;88.60;;;;;;5055883;28;20139;-67
2024/01/01 01:57:28;;;;;;;1.23;0.98;;;7.70;88.60;;;;;;5067393;28;20558;-67
2024/01/01 01:59:54;;;;;;;5.10;1.70;;;7.80;88.70;;;;;;5067361;28;20502;-67
2024/01/01 02:02:22;;;;;;;0.68;0.68;;;7.80;89.00;;;;;;5067363;28;20102;-67
2024/01/01 02:04:50;;;;;;;0.05;0.05;;;7.70;89.30;;;;;;5053645;28;20044;-67
2024/01/01 02:07:15;;;;;;;0.20;0.20;;;7.60;89.70;;;;;;5069888;28;20048;-67
2024/01/01 02:09:41;;;;;;;0.50;0.50;;;7.60;89.90;;;;;;5076709;28;20047;-67
2024/01/01 02:12:08;;;;;;;1.35;1.30;;;7.60;89.70;;;;;;5086473;28;20066;-67
2024/01/01 02:14:34;;;;;;;0.28;0.28;;;7.60;89.90;;;;;;5086725;28;20044;-67
2024/01/01 02:17:00;;;;;;;0.45;0.45;;;7.60;90.10;;;;;;5076080;28;20037;-67
2024/01/01 02:19:27;;;;;;;0.35;0.35;;;7.50;90.20;;;;;;5075335;28;20055;-67
2024/01/01 02:21:55;;;;;;;0.00;0.00;;;7.50;90.50;;;;;;5067181;28;20076;-67
2024/01/01 02:24:21;;;;;;;0.82;0.82;;;7.50;90.30;;;;;;5063810;28;20045;-67
2024/01/01 02:26:47;;;;;;;0.47;0.47;;;7.40;90.30;;;;;;5066014;28;20037;-67
2024/01/01 02:29:14;;;;;;;0.10;0.10;;;7.50;90.20;;;;;;5065322;28;20044;-67
2024/01/01 02:31:40;;;;;;;1.98;1.80;;;7.50;90.00;;;;;;5066324;28;20128;-67
2024/01/01 02:34:06;;;;;;;0.00;0.00;;;7.50;90.30;;;;;;5066399;28;20139;-67
2024/01/01 02:36:39;;;;;;;0.55;0.55;;;7.60;90.20;;;;;;5064677;28;20131;-67
2024/01/01 02:39:05;;;;;;;0.00;0.00;;;7.50;90.00;;;;;;5065722;28;20376;-67
2024/01/01 02:41:35;;;;;;;0.10;0.10;;;7.40;90.30;;;;;;5065717;28;20051;-67
2024/01/01 02:44:01;;;;;;;0.32;0.32;;;7.40;90.50;;;;;;5066542;28;20247;-67
2024/01/01 02:46:26;;;;;;;0.13;0.13;;;7.50;90.40;;;;;;5067048;28;20215;-67
2024/01/01 02:48:52;;;;;;;0.10;0.10;;;7.40;90.50;;;;;;5065809;28;20040;-67
2024/01/01 02:51:18;;;;;;;14.05;2.42;;;7.50;90.40;;;;;;5045613;28;20053;-67
2024/01/01 02:53:43;;;;;;;0.00;0.00;;;7.40;90.70;;;;;;5050092;28;20048;-67
2024/01/01 02:56:19;;;;;;;2.13;1.98;;;7.40;90.60;;;;;;5066614;28;20048;-67
2024/01/01 02:58:46;;;;;;;0.10;0.10;;;7.40;90.70;;;;;;5066269;28;21283;-67
2024/01/01 03:01:11;;;;;;;0.10;0.10;;;7.50;90.60;;;;;;5065821;28;20045;-67
2024/01/01 03:03:37;;;;;;;0.17;0.17;;;7.40;90.80;;;;;;5066503;28;20102;-67
2024/01/01 03:06:03;;;;;;;0.55;0.55;;;7.50;90.70;;;;;;5066225;28;20040;-67
2024/01/01 03:08:29;;;;;;;0.22;0.22;;;7.40;90.80;;;;;;5067072;28;20044;-67
2024/01/01 03:10:55;;;;;;;2.05;1.45;;;7.50;90.90;;;;;;5030740;28;20144;-67
2024/01/01 03:13:20;;;;;;;0.00;0.00;;;7.50;91.00;;;;;;5064064;28;20047;-66
2024/01/01 03:15:46;;;;;;;0.30;0.30;;;7.50;91.10;;;;;;5065109;28;20119;-67
2024/01/01 03:18:12;;;;;;;0.10;0.10;;;7.50;91.10;;;;;;5065747;28;20124;-67
2024/01/01 03:20:38;;;;;;;0.00;0.00;;;7.50;91.10;;;;;;5066172;28;20048;-67
2024/01/01 03:23:04;;;;;;;0.00;0.00;;;7.40;91.30;;;;;;5065932;28;20138;-67
2024/01/01 03:25:30;;;;;;;0.17;0.17;;;7.50;91.30;;;;;;5065928;28;20860;-67
2024/01/01 03:27:56;;;;;;;0.17;0.17;;;7.50;91.30;;;;;;5065471;28;20056;-67
2024/01/01 03:30:22;;;;;;;0.00;0.00;;;7.50;91.40;;;;;;5065861;28;20049;-67
2024/01/01 03:32:50;;;;;;;1.65;1.55;;;7.40;91.40;;;;;;5065784;28;20407;-67
2024/01/01 03:35:16;;;;;;;0.00;0.00;;;7.50;91.30;;;;;;5066045;28;20045;-67
2024/01/01 03:37:42;;;;;;;0.10;0.10;;;7.50;91.40;;;;;;5064839;28;20098;-67
2024/01/01 03:40:08;;;;;;;0.00;0.00;;;7.50;91.40;;;;;;5049904;28;20037;-69
2024/01/01 03:42:35;;;;;;;0.08;0.08;;;7.60;91.40;;;;;;5064101;28;20072;-67
2024/01/01 03:45:00;;;;;;;0.00;0.00;;;7.60;91.30;;;;;;5069446;28;20137;-67
2024/01/01 03:47:27;;;;;;;0.00;0.00;;;7.60;91.40;;;;;;5066805;28;20535;-67
2024/01/01 03:49:52;;;;;;;0.03;0.03;;;7.50;91.30;;;;;;5069607;28;20050;-67
2024/01/01 03:52:18;;;;;;;0.05;0.05;;;7.50;91.50;;;;;;5069602;28;20046;-67
2024/01/01 03:54:44;;;;;;;0.00;0.00;;;7.50;91.60;;;;;;5069025;28;20410;-67
2024/01/01 03:57:09;;;;;;;0.17;0.17;;;7.40;91.60;;;;;;5057069;28;20406;-67
2024/01/01 03:59:35;;;;;;;0.00;0.00;;;7.40;91.40;;;;;;5065935;28;20040;-67
2024/01/01 04:02:01;;;;;;;0.10;0.10;;;7.50;91.70;;;;;;5069431;28;20052;-67
2024/01/01 04:04:26;;;;;;;0.05;0.05;;;7.40;91.70;;;;;;5069445;28;20102;-67
2024/01/01 04:06:52;;;;;;;0.00;0.00;;;7.50;91.80;;;;;;5069119;28;20052;-67
2024/01/01 04:09:18;;;;;;;0.17;0.17;;;7.40;91.80;;;;;;5055560;28;20033;-67
2024/01/01 04:11:44;;;;;;;0.20;0.20;;;7.40;91.70;;;;;;5053093;28;20037;-67
2024/01/01 04:14:10;;;;;;;0.00;0.00;;;7.40;91.80;;;;;;5056801;28;20048;-67
2024/01/01 04:16:36;;;;;;;0.45;0.45;;;7.40;91.90;;;;;;5069196;28;20780;-67
2024/01/01 04:19:02;;;;;;;0.08;0.08;;;7.40;91.70;;;;;;5068736;28;20058;-67
2024/01/01 04:21:27;;;;;;;0.00;0.00;;;7.40;91.80;;;;;;5068059;28;20037;-67
2024/01/01 04:23:55;;;;;;;0.10;0.10;;;7.40;91.80;;;;;;5069220;28;20148;-67
2024/01/01 04:26:21;;;;;;;0.75;0.75;;;7.40;91.80;;;;;;5069152;28;20049;-67
2024/01/01 04:28:46;;;;;;;0.00;0.00;;;7.40;91.80;;;;;;5068619;28;20037;-67
2024/01/01 04:31:12;;;;;;;11.60;3.63;;;7.30;91.90;;;;;;5068514;28;20045;-67
2024/01/01 04:33:38;;;;;;;0.00;0.00;;;7.40;91.90;;;;;;5069171;28;20506;-67
2024/01/01 04:36:03;;;;;;;0.00;0.00;;;7.40;92.00;;;;;;5050440;28;20045;-67
2024/01/01 04:38:29;;;;;;;0.00;0.00;;;7.40;91.90;;;;;;5068929;28;20044;-67
2024/01/01 04:40:55;;;;;;;0.28;0.28;;;7.40;91.80;;;;;;5067907;28;20052;-67
2024/01/01 04:43:20;;;;;;;0.00;0.00;;;7.40;91.80;;;;;;5068989;28;20116;-67
2024/01/01 04:45:46;;;;;;;0.00;0.00;;;7.40;91.90;;;;;;5067383;28;20053;-67
2024/01/01 04:48:12;;;;;;;0.03;0.03;;;7.40;92.00;;;;;;5068412;28;20119;-67
2024/01/01 04:50:37;;;;;;;0.10;0.10;;;7.30;91.90;;;;;;5062796;28;20370;-67
2024/01/01 04:53:03;;;;;;;0.00;0.00;;;7.40;92.10;;;;;;5067622;28;20632;-67
2024/01/01 04:55:29;;;;;;;0.00;0.00;;;7.40;92.00;;;;;;5050235;28;20657;-67
2024/01/01 04:57:54;;;;;;;0.00;0.00;;;7.50;92.10;;;;;;5068419;28;20163;-67
2024/01/01 05:00:20;;;;;;;0.03;0.03;;;7.30;92.30;;;;;;5067918;28;21643;-67
2024/01/01 05:02:45;;;;;;;0.00;0.00;;;7.40;92.30;;;;;;5068227;28;20130;-67
2024/01/01 05:05:11;;;;;;;0.00;0.00;;;7.40;92.30;;;;;;5067563;28;20135;-67
2024/01/01 05:07:37;;;;;;;0.05;0.05;;;7.40;92.30;;;;;;5064735;28;20457;-67
2024/01/01 05:10:04;;;;;;;0.95;0.95;;;7.30;92.50;;;;;;5068533;28;20044;-67
2024/01/01 05:12:30;;;;;;;0.00;0.00;;;7.40;92.40;;;;;;5067767;28;20062;-67
2024/01/01 05:14:55;;;;;;;1.00;0.98;;;7.50;92.30;;;;;;5067513;28;20074;-67
2024/01/01 05:17:21;;;;;;;0.00;0.00;;;7.50;92.40;;;;;;5067999;28;20045;-67
2024/01/01 05:19:50;;;;;;;0.03;0.03;;;7.50;92.50;;;;;;5067897;28;20045;-67
2024/01/01 05:22:16;;;;;;;0.10;0.10;;;7.50;92.40;;;;;;5068174;28;20541;-67
2024/01/01 05:24:42;;;;;;;0.00;0.00;;;7.50;92.50;;;;;;5067454;28;20078;-67
2024/01/01 05:27:08;;;;;;;0.00;0.00;;;7.50;92.40;;;;;;5049759;28;20467;-67
2024/01/01 05:29:34;;;;;;;0.00;0.00;;;7.50;92.50;;;;;;5067656;28;20123;-67
2024/01/01 05:32:00;;;;;;;0.00;0.00;;;7.50;92.40;;;;;;5043457;28;20147;-67
2024/01/01 05:34:26;;;;;;;0.00;0.00;;;7.50;92.40;;;;;;5067705;28;20037;-67
2024/01/01 05:36:52;;;;;;;0.10;0.10;;;7.50;92.30;;;;;;5067274;28;20040;-67
2024/01/01 05:39:17;;;;;;;0.57;0.57;;;7.40;92.20;;;;;;5067421;28;20043;-67
2024/01/01 05:41:43;;;;;;;0.20;0.20;;;7.50;92.30;;;;;;5067044;28;20032;-67
2024/01/01 05:44:08;;;;;;;0.00;0.00;;;7.40;92.20;;;;;;5067709;28;20479;-67
2024/01/01 05:46:34;;;;;;;0.10;0.10;;;7.40;92.40;;;;;;5066997;28;20055;-67
2024/01/01 05:48:59;;;;;;;0.05;0.05;;;7.50;92.20;;;;;;5066652;28;20509;-67
2024/01/01 05:51:25;;;;;;;0.10;0.10;;;7.50;92.20;;;;;;5066948;28;20132;-67
2024/01/01 05:53:51;;;;;;;0.00;0.00;;;7.50;92.10;;;;;;5051318;28;20191;-67
2024/01/01 05:56:16;;;;;;;0.13;0.08;;;7.40;92.20;;;;;;5059075;28;20406;-67
2024/01/01 05:58:42;;;;;;;0.75;0.57;;;7.50;92.10;;;;;;5067195;28;20056;-67
2024/01/01 06:01:07;;;;;;;0.00;0.00;;;7.40;92.30;;;;;;5046904;28;20040;-67
2024/01/01 06:03:33;;;;;;;0.00;0.00;;;7.50;92.30;;;;;;5064863;28;20495;-67
2024/01/01 06:05:59;;;;;;;0.00;0.00;;;7.50;92.20;;;;;;5048178;28;20430;-66
2024/01/01 06:08:24;;;;;;;0.10;0.10;;;7.60;92.30;;;;;;5066678;28;20041;-67
2024/01/01 06:10:50;;;;;;;0.00;0.00;;;7.60;92.30;;;;;;5066737;28;20043;-67
2024/01/01 06:13:15;;;;;;;0.00;0.00;;;7.60;92.20;;;;;;5066650;28;20095;-67
2024/01/01 06:15:41;;;;;;;0.00;0.00;;;7.60;92.20;;;;;;5047636;28;20557;-67
2024/01/01 06:18:07;;;;;;;0.00;0.00;;;7.60;92.20;;;;;;5066970;28;20102;-67
2024/01/01 06:20:33;;;;;;;0.10;0.10;;;7.60;92.30;;;;;;5067055;28;20059;-67
2024/01/01 06:22:58;;;;;;;0.00;0.00;;;7.70;92.30;;;;;;5066536;28;20040;-67
2024/01/01 06:25:24;;;;;;;0.00;0.00;;;7.70;92.30;;;;;;5066421;28;20047;-67
2024/01/01 06:27:50;;;;;;;0.00;0.00;;;7.70;92.30;;;;;;5059733;28;20170;-67
2024/01/01 06:30:16;;;;;;;0.00;0.00;;;7.70;92.60;;;;;;5066807;28;20044;-67
2024/01/01 06:32:41;;;;;;;0.00;0.00;;;7.70;92.40;;;;;;5067199;28;20048;-67
2024/01/01 06:35:07;;;;;;;0.00;0.00;;;7.70;92.40;;;;;;5048257;28;20044;-66
2024/01/01 06:37:33;;;;;;;0.00;0.00;;;7.70;92.50;;;;;;5065453;28;20171;-67
2024/01/01 06:39:59;;;;;;;0.00;0.00;;;7.70;92.50;;;;;;5065902;28;20131;-67
2024/01/01 06:42:24;;;;;;;0.00;0.00;;;7.70;92.50;;;;;;5066056;28;20502;-67
2024/01/01 06:44:50;;;;;;;0.00;0.00;;;7.80;92.40;;;;;;5066297;28;20065;-67
2024/01/01 06:47:15;;;;;;;0.45;0.45;;;7.80;91.90;;;;;;5061560;28;20057;-67
2024/01/01 06:49:41;;;;;;;0.00;0.00;;;7.70;90.80;;;;;;5059148;28;20047;-67
2024/01/01 06:52:07;;;;;;;0.00;0.00;;;7.60;90.60;;;;;;5048451;28;20044;-67
2024/01/01 06:54:33;;;;;;;0.00;0.00;;;7.40;90.70;;;;;;5066523;28;20057;-67
2024/01/01 06:56:59;;;;;;;0.00;0.00;;;7.30;90.50;;;;;;5048508;28;20044;-67
2024/01/01 06:59:28;;;;;;;0.10;0.10;;;7.20;90.70;;;;;;5065956;28;20494;-67
2024/01/01 07:01:54;;;;;;;0.00;0.00;;;7.10;91.00;;;;;;5065611;28;20051;-67
2024/01/01 07:04:19;;;;;;;0.10;0.10;;;7.10;91.40;;;;;;5066290;28;20056;-67
2024/01/01 07:06:45;;;;;;;0.10;0.10;;;7.00;91.40;;;;;;5066235;28;20528;-67
2024/01/01 07:09:10;;;;;;;0.00;0.00;;;6.90;91.60;;;;;;5062089;28;20041;-67
2024/01/01 07:11:36;;;;;;;0.00;0.00;;;7.00;91.60;;;;;;5066624;28;20076;-67
2024/01/01 07:14:03;;;;;;;1.17;0.55;;;7.00;91.80;;;;;;5066455;28;20049;-67
2024/01/01 07:16:28;;;;;;;0.00;0.00;;;6.90;91.90;;;;;;5068991;28;20725;-67
2024/01/01 07:18:54;;;;;;;0.00;0.00;;;7.00;92.20;;;;;;5069534;28;20037;-67
2024/01/01 07:21:20;;;;;;;0.00;0.00;;;7.00;92.40;;;;;;5070453;28;20080;-67
2024/01/01 07:23:46;;;;;;;0.00;0.00;;;6.90;92.40;;;;;;5052388;28;20731;-67
2024/01/01 07:26:11;;;;;;;0.85;0.85;;;7.00;92.60;;;;;;5069778;28;20041;-67
2024/01/01 07:28:37;;;;;;;0.00;0.00;;;7.00;92.60;;;;;;5069904;28;20049;-67
2024/01/01 07:31:03;;;;;;;0.00;0.00;;;7.10;92.40;;;;;;5069532;28;20040;-67
2024/01/01 07:33:28;;;;;;;0.22;0.22;;;7.00;92.20;;;;;;5070109;28;20102;-67
2024/01/01 07:35:54;;;;;;;0.00;0.00;;;7.00;92.20;;;;;;5069490;28;20045;-66
2024/01/01 07:38:20;;;;;;;0.00;0.00;;;7.00;92.10;;;;;;5069290;28;20041;-67
2024/01/01 07:40:45;;;;;;;0.88;0.80;;;7.00;92.10;;;;;;5069534;28;20059;-67
2024/01/01 07:43:11;;;;;;;0.45;0.45;;;6.90;92.20;;;;;;5069649;28;20044;-67
2024/01/01 07:45:37;;;;;;;0.00;0.00;;;6.90;92.30;;;;;;5069252;28;20083;-67
2024/01/01 07:48:03;;;;;;;0.03;0.03;;;7.00;92.40;;;;;;5067478;28;20131;-67
2024/01/01 07:50:28;;;;;;;0.00;0.00;;;6.90;92.60;;;;;;5069620;28;20836;-67
2024/01/01 07:52:54;;;;;;;0.00;0.00;;;7.00;92.60;;;;;;5067261;28;20048;-67
2024/01/01 07:55:20;;;;;;;0.00;0.00;;;7.10;92.60;;;;;;5069670;28;20054;-67
2024/01/01 07:57:49;;;;;;;0.00;0.00;;;7.10;92.60;;;;;;5069208;28;20052;-67
2024/01/01 08:00:15;;;;;;;0.00;0.00;;;7.10;92.60;;;;;;5069361;28;20442;-67
2024/01/01 08:02:43;;;;;;;0.00;0.00;;;7.20;92.60;;;;;;5068914;28;20051;-67
2024/01/01 08:05:08;;;;;;;0.00;0.00;;;7.20;92.70;;;;;;5064525;28;20051;-67
2024/01/01 08:07:34;;;;;;;0.10;0.10;;;7.20;92.60;;;;;;5069275;28;20045;-67
2024/01/01 08:09:59;;;;;;;0.00;0.00;;;7.20;92.70;;;;;;5051876;28;20048;-67
2024/01/01 08:12:26;;;;;;;0.00;0.00;;;7.30;92.70;;;;;;5068816;28;20059;-67
2024/01/01 08:14:52;;;;;;;0.00;0.00;;;7.30;92.90;;;;;;5067980;28;20045;-67
2024/01/01 08:17:18;;;;;;;0.20;0.20;;;7.20;92.80;;;;;;5068987;28;20052;-67
2024/01/01 08:19:44;;;;;;;0.05;0.05;;;7.30;92.90;;;;;;5068672;28;20149;-67
2024/01/01 08:22:09;;;;;;;0.00;0.00;;;7.40;92.90;;;;;;5059922;28;20031;-67
2024/01/01 08:24:35;;;;;;;1.02;0.57;;;7.40;92.70;;;;;;5056457;28;20052;-66
2024/01/01 08:27:01;;;;;;;0.00;0.00;;;7.40;91.70;;;;;;5065524;28;20056;-67
2024/01/01 08:29:27;;;;;;;0.00;0.00;;;7.30;91.70;;;;;;5068811;28;20048;-67
2024/01/01 08:31:52;;;;;;;0.30;0.30;;;7.20;91.50;;;;;;5068675;28;20124;-66
2024/01/01 08:34:18;;;;;;;0.35;0.35;;;7.20;91.40;;;;;;5068754;28;20051;-66
2024/01/01 08:36:43;;;;;;;0.00;0.00;;;7.10;91.50;;;;;;5067750;28;20032;-68
2024/01/01 08:39:09;;;;;;;0.00;0.00;;;7.10;91.50;;;;;;5067603;28;20078;-68
2024/01/01 08:41:43;;;;;;;0.00;0.00;;;7.10;91.30;;;;;;5067511;28;20048;-68
2024/01/01 08:44:09;;;;;;;0.00;0.00;;;7.10;91.30;;;;;;5068679;28;20036;-68
2024/01/01 08:46:35;;;;;;;0.00;0.00;;;7.10;91.50;;;;;;5050640;28;20519;-68
2024/01/01 08:49:01;;;;;;;0.00;0.00;;;7.10;91.50;;;;;;5050035;28;20080;-67
2024/01/01 08:51:26;;;;;;;0.00;0.00;;;7.10;91.60;;;;;;5067249;28;20036;-67
2024/01/01 08:53:52;;;;;;;0.00;0.00;;;7.20;91.30;;;;;;5046736;28;20053;-67
2024/01/01 08:56:18;;;;;;;0.00;0.00;;;7.30;91.20;;;;;;5047544;28;20068;-67
2024/01/01 08:58:43;;;;;;;0.00;0.00;;;7.20;91.40;;;;;;5067689;28;20407;-67
2024/01/01 09:01:09;;;;;;;0.10;0.10;;;7.20;91.10;;;;;;5068433;28;20127;-68
2024/01/01 09:03:37;;;;;;;0.00;0.00;;;7.20;91.40;;;;;;5068890;28;20044;-67
2024/01/01 09:06:03;;;;;;;0.08;0.08;;;7.20;91.50;;;;;;5067345;28;20048;-68
2024/01/01 09:08:29;;;;;;;0.00;0.00;;;7.20;91.60;;;;;;5051699;28;20557;-68
2024/01/01 09:10:55;;;;;;;0.10;0.10;;;7.30;91.90;;;;;;5069141;28;20572;-68
2024/01/01 09:13:21;;;;;;;0.00;0.00;;;7.40;91.80;;;;;;5068711;28;20097;-68
2024/01/01 09:15:46;;;;;;;0.10;0.10;;;7.40;91.90;;;;;;5066746;28;20050;-67
2024/01/01 09:18:12;;;;;;;0.00;0.00;;;7.50;91.90;;;;;;5067835;28;20058;-68
2024/01/01 09:20:40;;;;;;;0.00;0.00;;;7.60;92.00;;;;;;5065406;28;20834;-68
2024/01/01 09:23:06;;;;;;;1.40;1.30;;;7.70;91.90;;;;;;5067921;28;20036;-68
2024/01/01 09:25:34;;;;;;;0.00;0.00;;;7.70;91.90;;;;;;5068208;28;20055;-67
2024/01/01 09:27:59;;;;;;;0.05;0.05;;;7.80;91.60;;;;;;5050852;28;20052;-68
2024/01/01 09:30:25;;;;;;;0.00;0.00;;;7.90;91.40;;;;;;5058726;28;20044;-67
2024/01/01 09:32:50;;;;;;;1.58;1.48;;;7.90;91.30;;;;;;5068043;28;20490;-67
2024/01/01 09:35:16;;;;;;;0.00;0.00;;;7.80;91.20;;;;;;5066725;28;20123;-69
2024/01/01 09:37:42;;;;;;;1.50;0.98;;;7.70;91.30;;;;;;5068145;28;20454;-69
2024/01/01 09:40:08;;;;;;;0.20;0.20;;;7.80;91.10;;;;;;5068307;28;20048;-68
2024/01/01 09:42:34;;;;;;;0.00;0.00;;;7.70;91.20;;;;;;5042457;28;20091;-68
2024/01/01 09:44:59;;;;;;;0.00;0.00;;;7.70;91.10;;;;;;5037698;28;20037;-69
2024/01/01 09:47:25;;;;;;;0.08;0.08;;;7.70;91.10;;;;;;5050565;28;20072;-68
2024/01/01 09:49:50;;;;;;;0.10;0.10;;;7.70;91.30;;;;;;5067110;28;20048;-69
2024/01/01 09:52:17;;;;;;;0.10;0.10;;;7.70;91.30;;;;;;5050478;28;20036;-69
2024/01/01 09:54:42;;;;;;;0.00;0.00;;;7.80;91.10;;;;;;5067486;28;20460;-69
2024/01/01 09:57:08;;;;;;;0.55;0.55;;;7.90;91.00;;;;;;5066644;28;20159;-70
2024/01/01 09:59:38;;;;;;;0.55;0.55;;;7.90;90.90;;;;;;5067634;28;20799;-69
2024/01/01 10:02:05;;;;;;;0.10;0.10;;;8.00;90.70;;;;;;5067945;28;20045;-69
2024/01/01 10:04:30;;;;;;;0.00;0.00;;;8.00;90.50;;;;;;5050400;28;20491;-69
2024/01/01 10:07:00;;;;;;;0.00;0.00;;;8.00;90.00;;;;;;5066736;28;20047;-69
2024/01/01 10:09:27;;;;;;;0.00;0.00;;;8.10;90.10;;;;;;5062062;28;20132;-69
2024/01/01 10:12:05;;;;;;;0.17;0.17;;;8.10;89.70;;;;;;5068338;28;20097;-69
2024/01/01 10:14:30;;;;;;;0.00;0.00;;;8.10;89.50;;;;;;5065417;28;20048;-69
2024/01/01 10:17:11;;;;;;;0.00;0.00;;;8.10;89.40;;;;;;5049577;28;20106;-70
2024/01/01 10:19:47;;;;;;;0.10;0.10;;;8.20;89.20;;;;;;5046152;28;20084;-68
2024/01/01 10:22:12;;;;;;;0.00;0.00;;;8.30;88.80;;;;;;5066506;28;20518;-68
2024/01/01 10:24:38;;;;;;;0.10;0.10;;;8.30;88.40;;;;;;5064468;28;20051;-68
2024/01/01 10:27:05;;;;;;;4.47;2.30;;;8.30;88.60;;;;;;5049450;28;20040;-69
2024/01/01 10:29:35;;;;;;;0.00;0.00;;;8.20;88.50;;;;;;5067500;28;20042;-68
2024/01/01 10:32:01;;;;;;;0.10;0.10;;;8.20;88.30;;;;;;5057864;28;20101;-68
2024/01/01 10:34:27;;;;;;;0.00;0.00;;;8.20;88.50;;;;;;5050063;28;20065;-69
2024/01/01 10:36:53;;;;;;;0.88;0.85;;;8.20;88.40;;;;;;5049673;28;20040;-71
2024/01/01 10:39:19;;;;;;;0.10;0.10;;;8.20;88.50;;;;;;5066177;28;20088;-69
2024/01/01 10:41:47;;;;;;;0.00;0.00;;;8.20;88.30;;;;;;5043486;28;20178;-68
2024/01/01 10:44:12;;;;;;;0.00;0.00;;;8.20;88.60;;;;;;5049344;28;20503;-69
2024/01/01 10:46:58;;;;;;;0.00;0.00;;;8.20;88.70;;;;;;5067645;28;20052;-69
2024/01/01 10:49:30;;;;;;;0.00;0.00;;;8.20;88.30;;;;;;5067593;28;20105;-69
2024/01/01 10:52:01;;;;;;;;;;;8.20;88.60;;;;;;5063701;28;20154;-69
2024/01/01 10:54:50;;;;;;;0.00;0.00;;;8.20;88.50;;;;;;5054441;28;19932;-69
2024/01/01 10:57:44;;;;;;;0.65;0.65;;;8.30;88.60;;;;;;5066826;28;20662;-69
2024/01/01 11:00:33;;;;;;;0.00;0.00;;;8.20;87.90;;;;;;5066383;28;20040;-69
2024/01/01 11:03:01;;;;;;;0.00;0.00;;;8.30;87.50;;;;;;5060115;28;20105;-69
2024/01/01 11:05:33;;;;;;;0.00;0.00;;;8.30;87.60;;;;;;5072612;28;20064;-69
2024/01/01 11:08:03;;;;;;;0.22;0.22;;;8.30;87.80;;;;;;5044643;28;20086;-69
2024/01/01 11:10:35;;;;;;;0.00;0.00;;;8.30;87.40;;;;;;5045810;28;20725;-70
2024/01/01 11:13:04;;;;;;;0.00;0.00;;;8.40;87.40;;;;;;5050577;28;20052;-69
2024/01/01 11:15:45;;;;;;;1.10;1.10;;;8.50;87.00;;;;;;5071607;28;20048;-69
2024/01/01 11:18:15;;;;;;;0.00;0.00;;;8.40;87.00;;;;;;5064992;28;20101;-69
2024/01/01 11:20:52;;;;;;;0.00;0.00;;;8.50;86.80;;;;;;5066915;28;20048;-69
2024/01/01 11:23:50;;;;;;;0.10;0.10;;;8.50;86.50;;;;;;5045686;28;20506;-69
2024/01/01 11:26:35;;;;;;;0.00;0.00;;;8.50;86.40;;;;;;5029969;28;20052;-69
2024/01/01 11:29:01;;;;;;;0.00;0.00;;;8.40;85.90;;;;;;5052805;28;20048;-69
2024/01/01 11:31:28;;;;;;;0.00;0.00;;;8.40;86.40;;;;;;5048484;28;20052;-69
2024/01/01 11:34:09;;;;;;;0.00;0.00;;;8.50;86.20;;;;;;5047866;28;20614;-69
2024/01/01 11:36:40;;;;;;;0.00;0.00;;;8.50;86.10;;;;;;5044107;28;20037;-69
2024/01/01 11:39:07;;;;;;;0.00;0.00;;;8.60;85.60;;;;;;5045946;28;20044;-69
2024/01/01 11:41:33;;;;;;;1.33;1.27;;;8.50;85.90;;;;;;5064687;28;20525;-69
2024/01/01 11:44:15;;;;;;;0.10;0.10;;;8.50;85.30;;;;;;5067425;28;20052;-69
2024/01/01 11:46:41;;;;;;;0.10;0.10;;;8.60;85.10;;;;;;5044172;28;20063;-69
2024/01/01 11:49:07;;;;;;;0.10;0.10;;;8.60;84.70;;;;;;5068963;28;20152;-69
2024/01/01 11:51:49;;;;;;;0.00;0.00;;;8.60;84.70;;;;;;5060584;28;20548;-69
2024/01/01 11:54:15;;;;;;;0.30;0.30;;;8.60;85.20;;;;;;5056533;28;20053;-69
2024/01/01 11:56:41;;;;;;;0.05;0.05;;;8.60;84.80;;;;;;5046960;28;20491;-69
2024/01/01 11:59:07;;;;;;;0.00;0.00;;;8.60;85.00;;;;;;5048954;28;20107;-69
2024/01/01 12:01:34;;;;;;;0.13;0.13;;;8.60;84.90;;;;;;5050613;28;20486;-70
2024/01/01 12:04:03;;;;;;;4.03;1.83;;;8.60;84.70;;;;;;5052404;28;20063;-70
2024/01/01 12:06:29;;;;;;;13.25;1.17;;;8.50;84.60;;;;;;5058423;28;20044;-70
2024/01/01 12:09:09;;;;;;;5.13;1.13;;;8.60;84.90;;;;;;5066224;28;20040;-70
2024/01/01 12:11:36;;;;;;;0.00;0.00;;;8.60;85.80;;;;;;5069475;28;20148;-70
2024/01/01 12:14:02;;;;;;;0.00;0.00;;;8.60;86.00;;;;;;5051852;28;20052;-70
2024/01/01 12:16:29;;;;;;;1.95;1.85;;;8.50;86.00;;;;;;5069391;28;20040;-70
2024/01/01 12:19:06;;;;;;;1.00;1.00;;;8.50;85.50;;;;;;5068029;28;20045;-70
2024/01/01 12:21:43;;;;;;;0.00;0.00;;;8.50;85.40;;;;;;5069453;28;20045;-70
2024/01/01 12:24:12;;;;;;;0.20;0.20;;;8.50;85.50;;;;;;5068717;28;20475;-70
2024/01/01 12:26:38;;;;;;;0.00;0.00;;;8.60;85.40;;;;;;5051396;28;20052;-70
2024/01/01 12:29:12;;;;;;;0.00;0.00;;;8.60;85.60;;;;;;5069754;28;20127;-70
2024/01/01 12:31:39;;;;;;;0.30;0.30;;;8.50;85.80;;;;;;5064119;28;20048;-70
2024/01/01 12:34:06;;;;;;;0.00;0.00;;;8.50;85.80;;;;;;5068948;28;20051;-69
2024/01/01 12:36:32;;;;;;;0.00;0.00;;;8.50;85.90;;;;;;5080821;28;20040;-69
2024/01/01 12:38:58;;;;;;;0.00;0.00;;;8.40;86.10;;;;;;5048749;28;20448;-70
2024/01/01 12:41:23;;;;;;;0.00;0.00;;;8.40;86.40;;;;;;5070655;28;20048;-70
2024/01/01 12:43:49;;;;;;;0.00;0.00;;;8.50;86.30;;;;;;5041914;28;20056;-70
2024/01/01 12:46:15;;;;;;;0.00;0.00;;;8.50;86.30;;;;;;5065149;28;20040;-69
2024/01/01 12:48:45;;;;;;;0.00;0.00;;;8.40;86.70;;;;;;5051048;28;20979;-70
2024/01/01 12:51:13;;;;;;;0.00;0.00;;;8.40;87.00;;;;;;5069127;28;20052;-70
2024/01/01 12:53:39;;;;;;;0.00;0.00;;;8.40;86.90;;;;;;5063153;28;20060;-70
2024/01/01 12:56:05;;;;;;;0.00;0.00;;;8.30;87.10;;;;;;5070243;28;20064;-70